.
WxDataArchive / Data Records for 2010-12-05
2010-12-04 December 2010 2010-12-06

Data Records for Sunday, 05 December 2010

Time	Temp	Chill	HIndex	Humid	Dewpt	 Wind 	HiWind	WindDir	Rain 	Barom 
-----	----	-----	------	-----	-----	------	------	-------	-----	----- 
00:00	27.9	27.9	27.9	62	16.6	1	4	315	0.00	30.142 
00:05	27.8	27.8	27.8	62	16.5	1	5	315	0.00	30.142 
00:10	27.6	27.6	27.6	62	16.3	1	3	0	0.00	30.142 
00:15	27.6	27.6	27.6	62	16.3	1	4	22	0.00	30.149 
00:20	27.5	27.5	27.5	62	16.2	1	4	338	0.00	30.149 
00:25	27.5	27.5	27.5	62	16.2	1	3	338	0.00	30.149 
00:30	27.3	27.3	27.3	63	16.4	0	4	270	0.00	30.148 
00:35	27.3	27.3	27.3	62	16.0	1	3	270	0.00	30.148 
00:40	27.2	27.2	27.2	62	15.9	0	4	315	0.00	30.148 
00:45	27.0	27.0	27.0	63	16.1	0	3	315	0.00	30.143 
00:50	26.9	26.9	26.9	63	16.0	0	4	22	0.00	30.143 
00:55	26.7	26.7	26.7	64	16.2	0	1	22	0.00	30.143 
01:00	26.7	26.7	26.7	64	16.2	0	1	22	0.00	30.145 
01:05	26.6	26.6	26.6	65	16.4	0	1	22	0.00	30.145 
01:10	26.7	26.7	26.7	65	16.5	0	1	22	0.00	30.145 
01:15	26.7	26.7	26.7	65	16.5	0	2	22	0.00	30.144 
01:20	26.7	26.7	26.7	66	16.9	0	1	22	0.00	30.144 
01:25	26.7	26.7	26.7	66	16.9	0	2	22	0.00	30.144 
01:30	26.7	26.7	26.7	65	16.5	1	3	0	0.00	30.146 
01:35	26.7	26.7	26.7	65	16.5	1	4	292	0.00	30.146 
01:40	26.6	26.6	26.6	65	16.4	0	1	0	0.00	30.146 
01:45	26.4	26.4	26.4	65	16.3	1	2	0	0.00	30.140 
01:50	26.3	26.3	26.3	65	16.2	0	1	0	0.00	30.140 
01:55	26.3	26.3	26.3	65	16.2	1	3	292	0.00	30.140 
02:00	26.3	26.3	26.3	65	16.2	1	3	292	0.00	30.142 
02:05	26.3	26.3	26.3	65	16.2	1	5	338	0.00	30.142 
02:10	26.3	26.3	26.3	65	16.2	0	3	338	0.00	30.142 
02:15	26.1	26.1	26.1	65	16.0	1	3	0	0.00	30.151 
02:20	26.1	26.1	26.1	65	16.0	0	4	0	0.00	30.151 
02:25	26.1	26.1	26.1	65	16.0	1	3	270	0.00	30.151 
02:30	26.1	26.1	26.1	65	16.0	2	6	0	0.00	30.159 
02:35	26.0	26.0	26.0	65	15.9	1	3	0	0.00	30.159 
02:40	26.0	26.0	26.0	64	15.5	1	3	338	0.00	30.159 
02:45	26.0	26.0	26.0	64	15.5	0	2	338	0.00	30.160 
02:50	25.8	25.8	25.8	64	15.3	0	2	338	0.00	30.160 
02:55	25.7	25.7	25.7	64	15.2	1	3	338	0.00	30.160 
03:00	25.7	25.7	25.7	64	15.2	1	6	270	0.00	30.163 
03:05	25.6	25.6	25.6	63	14.8	1	7	0	0.00	30.163 
03:10	25.6	25.6	25.6	63	14.8	1	5	338	0.00	30.163 
03:15	25.6	25.6	25.6	64	15.1	0	2	338	0.00	30.165 
03:20	25.6	25.6	25.6	64	15.1	0	2	225	0.00	30.165 
03:25	25.4	25.4	25.4	64	14.9	0	2	225	0.00	30.165 
03:30	25.4	25.4	25.4	64	14.9	0	3	22	0.00	30.161 
03:35	25.4	25.4	25.4	64	14.9	0	2	22	0.00	30.161 
03:40	25.4	25.4	25.4	64	14.9	0	2	0	0.00	30.161 
03:45	25.4	25.4	25.4	64	14.9	0	2	248	0.00	30.161 
03:50	25.4	25.4	25.4	65	15.3	0	0	---	0.00	30.161 
03:55	25.3	25.3	25.3	65	15.2	0	1	248	0.00	30.161 
04:00	25.1	25.1	25.1	65	15.0	0	1	248	0.00	30.159 
04:05	25.0	25.0	25.0	65	14.9	0	2	248	0.00	30.159 
04:10	25.0	25.0	25.0	65	14.9	1	3	68	0.00	30.159 
04:15	24.8	24.8	24.8	65	14.7	0	1	248	0.00	30.157 
04:20	24.8	24.8	24.8	66	15.1	0	1	248	0.00	30.157 
04:25	24.7	24.7	24.7	66	15.0	0	2	248	0.00	30.157 
04:30	24.5	24.5	24.5	66	14.8	0	2	248	0.00	30.163 
04:35	24.5	24.5	24.5	66	14.8	0	1	248	0.00	30.163 
04:40	24.4	24.4	24.4	67	15.0	0	2	248	0.00	30.163 
04:45	24.4	24.4	24.4	67	15.0	0	1	270	0.00	30.171 
04:50	24.4	24.4	24.4	67	15.0	0	1	270	0.00	30.171 
04:55	24.4	24.4	24.4	67	15.0	0	1	270	0.00	30.171 
05:00	24.2	24.2	24.2	68	15.2	0	1	270	0.00	30.173 
05:05	24.2	24.2	24.2	68	15.2	0	1	270	0.00	30.173 
05:10	24.4	24.4	24.4	68	15.4	0	1	270	0.00	30.173 
05:15	24.4	24.4	24.4	68	15.4	0	1	270	0.00	30.175 
05:20	24.4	24.4	24.4	68	15.4	0	1	270	0.00	30.175 
05:25	24.5	24.5	24.5	68	15.5	0	0	---	0.00	30.175 
05:30	24.5	24.5	24.5	69	15.8	0	0	---	0.00	30.174 
05:35	24.7	24.7	24.7	68	15.7	0	1	270	0.00	30.174 
05:40	24.7	24.7	24.7	68	15.7	0	2	270	0.00	30.174 
05:45	24.8	24.8	24.8	68	15.8	0	1	270	0.00	30.174 
05:50	25.0	25.0	25.0	68	16.0	0	1	270	0.00	30.174 
05:55	25.0	25.0	25.0	68	16.0	0	2	270	0.00	30.174 
06:00	25.0	25.0	25.0	68	16.0	0	1	270	0.00	30.174 
06:05	25.1	25.1	25.1	67	15.7	1	3	270	0.00	30.174 
06:10	25.1	25.1	25.1	67	15.7	0	2	270	0.00	30.174 
06:15	25.1	25.1	25.1	67	15.7	0	2	270	0.00	30.175 
06:20	25.1	25.1	25.1	68	16.1	0	1	270	0.00	30.175 
06:25	25.1	25.1	25.1	68	16.1	0	1	270	0.00	30.175 
06:30	25.1	25.1	25.1	68	16.1	0	1	270	0.00	30.174 
06:35	25.0	25.0	25.0	68	16.0	0	2	270	0.00	30.174 
06:40	25.0	25.0	25.0	68	16.0	0	1	270	0.00	30.174 
06:45	25.0	25.0	25.0	68	16.0	0	1	270	0.00	30.174 
06:50	25.0	25.0	25.0	68	16.0	0	1	270	0.00	30.174 
06:55	25.0	25.0	25.0	68	16.0	0	2	270	0.00	30.174 
07:00	25.1	25.1	25.1	68	16.1	0	1	270	0.00	30.176 
07:05	25.1	25.1	25.1	68	16.1	0	2	270	0.00	30.176 
07:10	25.1	25.1	25.1	68	16.1	0	1	270	0.00	30.176 
07:15	25.1	25.1	25.1	68	16.1	0	2	270	0.00	30.179 
07:20	25.0	25.0	25.0	68	16.0	0	1	270	0.00	30.179 
07:25	25.0	25.0	25.0	69	16.3	0	2	270	0.00	30.179 
07:30	24.8	24.8	24.8	69	16.1	0	2	270	0.00	30.177 
07:35	24.8	24.8	24.8	69	16.1	0	1	270	0.00	30.177 
07:40	24.8	24.8	24.8	69	16.1	0	1	270	0.00	30.177 
07:45	24.7	24.7	24.7	69	16.0	0	1	270	0.00	30.178 
07:50	24.7	24.7	24.7	69	16.0	0	1	270	0.00	30.178 
07:55	24.8	24.8	24.8	69	16.1	0	1	270	0.00	30.178 
08:00	25.0	25.0	25.0	70	16.6	0	1	270	0.00	30.182 
08:05	25.1	25.1	25.1	70	16.7	0	1	270	0.00	30.182 
08:10	25.3	25.3	25.3	70	16.9	0	2	270	0.00	30.182 
08:15	25.4	25.4	25.4	69	16.7	0	2	270	0.00	30.182 
08:20	25.6	25.6	25.6	69	16.9	0	2	270	0.00	30.182 
08:25	25.7	25.7	25.7	69	17.0	0	2	270	0.00	30.182 
08:30	25.8	25.8	25.8	69	17.1	1	3	270	0.00	30.183 
08:35	26.0	26.0	26.0	69	17.2	1	2	270	0.00	30.183 
08:40	26.1	26.1	26.1	69	17.3	0	2	270	0.00	30.183 
08:45	26.3	26.3	26.3	69	17.5	1	2	270	0.00	30.185 
08:50	26.4	26.4	26.4	69	17.6	1	2	270	0.00	30.185 
08:55	26.6	26.6	26.6	69	17.8	1	3	270	0.00	30.185 
09:00	26.6	26.6	26.6	69	17.8	1	4	270	0.00	30.188 
09:05	26.7	26.7	26.7	69	17.9	1	2	338	0.00	30.188 
09:10	26.9	26.9	26.9	69	18.1	1	3	225	0.00	30.188 
09:15	27.0	27.0	27.0	69	18.2	1	4	270	0.00	30.190 
09:20	27.2	27.2	27.2	69	18.4	1	3	248	0.00	30.190 
09:25	27.2	27.2	27.2	69	18.4	1	4	248	0.00	30.190 
09:30	27.3	27.3	27.3	69	18.5	1	3	248	0.00	30.192 
09:35	27.3	27.3	27.3	70	18.8	2	3	248	0.00	30.192 
09:40	27.3	27.3	27.3	71	19.2	2	3	225	0.00	30.192 
09:45	27.5	27.5	27.5	71	19.4	2	4	248	0.00	30.191 
09:50	27.5	27.5	27.5	72	19.7	1	3	248	0.00	30.191 
09:55	27.5	27.5	27.5	73	20.0	2	4	248	0.00	30.191 
10:00	27.5	27.5	27.5	75	20.6	1	2	248	0.00	30.196 
10:05	27.5	27.5	27.5	76	20.9	1	3	248	0.00	30.196 
10:10	27.3	27.3	27.3	77	21.1	2	3	248	0.00	30.196 
10:15	27.3	27.3	27.3	78	21.4	1	4	248	0.00	30.204 
10:20	27.2	27.2	27.2	79	21.6	2	3	248	0.00	30.204 
10:25	27.2	27.2	27.2	80	21.9	1	2	248	0.00	30.204 
10:30	27.3	27.3	27.3	81	22.3	1	3	315	0.00	30.205 
10:35	27.2	27.2	27.2	82	22.4	1	3	248	0.00	30.205 
10:40	27.2	27.2	27.2	82	22.4	2	3	248	0.00	30.205 
10:45	27.2	27.2	27.2	83	22.7	1	2	248	0.00	30.206 
10:50	27.3	27.3	27.3	83	22.8	1	3	248	0.00	30.206 
10:55	27.3	27.3	27.3	84	23.1	1	3	248	0.00	30.206 
11:00	27.2	27.2	27.2	84	23.0	2	4	270	0.00	30.207 
11:05	27.2	27.2	27.2	84	23.0	1	3	270	0.00	30.207 
11:10	27.2	27.2	27.2	84	23.0	2	4	248	0.00	30.207 
11:15	27.2	27.2	27.2	85	23.3	2	4	248	0.00	30.206 
11:20	27.2	27.2	27.2	85	23.3	2	4	270	0.00	30.206 
11:25	27.2	27.2	27.2	85	23.3	1	3	270	0.00	30.206 
11:30	27.3	27.3	27.3	86	23.7	1	3	248	0.00	30.203 
11:35	27.3	27.3	27.3	86	23.7	2	6	248	0.00	30.203 
11:40	27.3	27.3	27.3	86	23.7	1	4	248	0.00	30.203 
11:45	27.3	27.3	27.3	86	23.7	2	4	225	0.00	30.198 
11:50	27.5	27.5	27.5	87	24.1	1	3	225	0.00	30.198 
11:55	27.6	27.6	27.6	87	24.2	1	3	225	0.00	30.198 
12:00	27.8	27.8	27.8	87	24.4	2	4	225	0.00	30.191 
12:05	27.8	27.8	27.8	87	24.4	1	3	270	0.00	30.191 
12:10	27.8	27.8	27.8	87	24.4	2	3	270	0.00	30.191 
12:15	27.8	27.8	27.8	87	24.4	2	4	248	0.00	30.190 
12:20	27.9	27.9	27.9	87	24.5	1	3	248	0.00	30.190 
12:25	28.1	28.1	28.1	87	24.7	1	3	248	0.00	30.190 
12:30	28.1	28.1	28.1	87	24.7	1	4	248	0.00	30.184 
12:35	28.2	28.2	28.2	88	25.1	1	3	270	0.00	30.184 
12:40	28.2	28.2	28.2	88	25.1	0	2	248	0.00	30.184 
12:45	28.4	28.4	28.4	88	25.3	1	2	248	0.00	30.178 
12:50	28.4	28.4	28.4	88	25.3	1	2	248	0.00	30.178 
12:55	28.4	28.4	28.4	88	25.3	1	3	270	0.00	30.178 
13:00	28.2	28.2	28.2	88	25.1	1	3	248	0.00	30.173 
13:05	28.2	28.2	28.2	88	25.1	1	2	248	0.00	30.173 
13:10	28.2	28.2	28.2	88	25.1	1	2	248	0.00	30.173 
13:15	28.4	28.4	28.4	88	25.3	1	2	248	0.00	30.171 
13:20	28.4	28.4	28.4	88	25.3	0	1	248	0.00	30.171 
13:25	28.5	28.5	28.5	88	25.4	0	1	248	0.00	30.171 
13:30	28.5	28.5	28.5	88	25.4	0	1	248	0.00	30.163 
13:35	28.5	28.5	28.5	88	25.4	0	0	---	0.00	30.163 
13:40	28.7	28.7	28.7	88	25.6	0	1	248	0.00	30.163 
13:45	28.7	28.7	28.7	88	25.6	0	1	248	0.00	30.159 
13:50	28.8	28.8	28.8	88	25.7	0	1	248	0.00	30.159 
13:55	28.8	28.8	28.8	88	25.7	0	0	---	0.00	30.159 
14:00	29.0	29.0	29.0	88	25.9	0	1	248	0.00	30.161 
14:05	28.8	28.8	28.8	88	25.7	1	3	248	0.00	30.161 
14:10	28.2	28.2	28.2	87	24.8	2	5	270	0.00	30.161 
14:15	27.9	27.9	27.9	88	24.8	1	4	338	0.00	30.159 
14:20	27.8	27.8	27.8	88	24.7	0	2	248	0.00	30.159 
14:25	27.8	27.8	27.8	89	25.0	1	4	292	0.00	30.159 
14:30	27.8	27.8	27.8	89	25.0	1	2	315	0.00	30.158 
14:35	27.9	27.9	27.9	89	25.1	1	3	315	0.00	30.158 
14:40	28.1	28.1	28.1	89	25.3	1	3	338	0.00	30.158 
14:45	28.2	28.2	28.2	90	25.7	0	3	248	0.00	30.157 
14:50	28.4	28.4	28.4	89	25.6	1	3	270	0.00	30.157 
14:55	28.4	28.4	28.4	89	25.6	1	4	248	0.00	30.157 
15:00	28.7	28.7	28.7	89	25.9	1	4	270	0.00	30.156 
15:05	28.8	28.8	28.8	88	25.7	1	3	315	0.00	30.156 
15:10	29.0	29.0	29.0	88	25.9	1	4	270	0.00	30.156 
15:15	29.0	29.0	29.0	86	25.3	2	4	315	0.00	30.157 
15:20	29.1	29.1	29.1	85	25.2	2	7	270	0.00	30.157 
15:25	29.1	29.1	29.1	83	24.6	3	7	315	0.00	30.157 
15:30	29.1	29.1	29.1	81	24.0	2	3	248	0.00	30.159 
15:35	29.3	29.3	29.3	81	24.2	2	4	248	0.00	30.159 
15:40	29.4	29.4	29.4	81	24.3	2	5	270	0.00	30.159 
15:45	29.3	29.3	29.3	82	24.5	3	5	270	0.00	30.160 
15:50	29.1	29.1	29.1	83	24.6	3	7	248	0.00	30.160 
15:55	29.0	29.0	29.0	84	24.8	2	7	270	0.00	30.160 
16:00	28.7	28.7	28.7	84	24.5	2	6	270	0.00	30.165 
16:05	28.5	24.0	28.5	85	24.6	4	9	270	0.00	30.165 
16:10	28.5	28.5	28.5	85	24.6	3	5	248	0.00	30.165 
16:15	28.5	28.5	28.5	85	24.6	3	7	270	0.00	30.169 
16:20	28.5	28.5	28.5	85	24.6	2	6	270	0.00	30.169 
16:25	28.5	24.0	28.5	84	24.3	4	7	270	0.00	30.169 
16:30	28.5	24.0	28.5	82	23.7	4	9	270	0.00	30.166 
16:35	28.7	24.3	28.7	81	23.6	4	6	270	0.00	30.166 
16:40	28.7	24.3	28.7	81	23.6	4	7	270	0.00	30.166 
16:45	28.5	28.5	28.5	82	23.7	3	10	270	0.00	30.168 
16:50	28.4	28.4	28.4	82	23.6	3	6	270	0.00	30.168 
16:55	28.1	28.1	28.1	83	23.6	3	6	270	0.00	30.168 
17:00	27.9	23.3	27.9	82	23.1	4	9	270	0.00	30.174 
17:05	27.9	27.9	27.9	81	22.8	3	6	270	0.00	30.174 
17:10	27.9	27.9	27.9	81	22.8	3	5	248	0.00	30.174 
17:15	27.9	27.9	27.9	80	22.5	3	9	270	0.00	30.176 
17:20	27.9	27.9	27.9	79	22.2	3	6	270	0.00	30.176 
17:25	27.9	27.9	27.9	79	22.2	3	4	270	0.00	30.176 
17:30	27.9	27.9	27.9	80	22.5	3	6	270	0.00	30.177 
17:35	27.8	27.8	27.8	80	22.4	2	4	248	0.00	30.177 
17:40	27.6	27.6	27.6	80	22.3	3	5	270	0.00	30.177 
17:45	27.5	27.5	27.5	79	21.9	3	6	270	0.00	30.182 
17:50	27.3	27.3	27.3	79	21.7	3	8	270	0.00	30.182 
17:55	27.2	22.5	27.2	78	21.3	4	7	270	0.00	30.182 
18:00	27.2	22.5	27.2	78	21.3	4	7	270	0.00	30.185 
18:05	27.2	27.2	27.2	77	21.0	3	7	270	0.00	30.185 
18:10	27.0	27.0	27.0	76	20.5	3	6	248	0.00	30.185 
18:15	27.0	27.0	27.0	78	21.1	3	7	270	0.00	30.184 
18:20	26.9	26.9	26.9	80	21.6	3	6	270	0.00	30.184 
18:25	26.7	26.7	26.7	81	21.7	3	5	270	0.00	30.184 
18:30	26.6	26.6	26.6	81	21.6	3	6	270	0.00	30.190 
18:35	26.6	26.6	26.6	82	21.9	3	5	270	0.00	30.190 
18:40	26.4	26.4	26.4	83	22.0	3	6	270	0.00	30.190 
18:45	26.4	26.4	26.4	83	22.0	3	5	270	0.00	30.192 
18:50	26.3	26.3	26.3	83	21.9	3	5	248	0.00	30.192 
18:55	26.3	26.3	26.3	83	21.9	3	7	270	0.00	30.192 
19:00	26.1	26.1	26.1	83	21.7	3	7	270	0.00	30.192 
19:05	26.0	26.0	26.0	82	21.3	3	7	270	0.00	30.192 
19:10	26.0	26.0	26.0	82	21.3	2	5	270	0.00	30.192 
19:15	26.0	26.0	26.0	82	21.3	3	6	270	0.00	30.192 
19:20	25.8	20.9	25.8	82	21.1	4	7	270	0.00	30.192 
19:25	25.7	20.8	25.7	83	21.3	4	8	270	0.00	30.192 
19:30	25.6	25.6	25.6	83	21.2	3	5	270	0.00	30.194 
19:35	25.4	25.4	25.4	84	21.3	3	5	270	0.00	30.194 
19:40	25.4	25.4	25.4	84	21.3	3	5	270	0.00	30.194 
19:45	25.3	25.3	25.3	85	21.4	3	6	270	0.00	30.192 
19:50	25.3	25.3	25.3	85	21.4	3	6	270	0.00	30.192 
19:55	25.3	25.3	25.3	85	21.4	3	5	270	0.00	30.192 
20:00	25.3	25.3	25.3	85	21.4	2	5	270	0.00	30.192 
20:05	25.3	25.3	25.3	85	21.4	2	4	270	0.00	30.192 
20:10	25.3	25.3	25.3	85	21.4	3	10	270	0.00	30.192 
20:15	25.4	25.4	25.4	85	21.5	2	5	315	0.00	30.187 
20:20	25.4	25.4	25.4	84	21.3	2	5	248	0.00	30.187 
20:25	25.4	25.4	25.4	84	21.3	2	6	248	0.00	30.187 
20:30	25.6	25.6	25.6	84	21.5	2	5	270	0.00	30.183 
20:35	25.6	25.6	25.6	84	21.5	3	6	270	0.00	30.183 
20:40	25.6	25.6	25.6	83	21.2	3	5	270	0.00	30.183 
20:45	25.6	25.6	25.6	83	21.2	2	5	270	0.00	30.177 
20:50	25.6	25.6	25.6	84	21.5	1	4	270	0.00	30.177 
20:55	25.4	25.4	25.4	84	21.3	2	5	292	0.00	30.177 
21:00	25.4	25.4	25.4	84	21.3	2	4	248	0.00	30.176 
21:05	25.4	25.4	25.4	84	21.3	2	5	270	0.00	30.176 
21:10	25.4	25.4	25.4	83	21.0	1	4	270	0.00	30.176 
21:15	25.4	25.4	25.4	83	21.0	2	5	292	0.00	30.176 
21:20	25.4	25.4	25.4	83	21.0	2	5	248	0.00	30.176 
21:25	25.6	25.6	25.6	83	21.2	2	7	270	0.00	30.176 
21:30	25.6	25.6	25.6	82	20.9	2	6	270	0.00	30.173 
21:35	25.6	25.6	25.6	82	20.9	3	4	270	0.00	30.173 
21:40	25.6	25.6	25.6	82	20.9	2	5	292	0.00	30.173 
21:45	25.6	25.6	25.6	83	21.2	2	6	292	0.00	30.170 
21:50	25.4	25.4	25.4	83	21.0	1	4	270	0.00	30.170 
21:55	25.4	25.4	25.4	83	21.0	2	6	270	0.00	30.170 
22:00	25.3	25.3	25.3	83	20.9	2	4	270	0.00	30.168 
22:05	25.3	25.3	25.3	83	20.9	2	5	270	0.00	30.168 
22:10	25.1	25.1	25.1	84	21.0	1	4	248	0.00	30.168 
22:15	25.1	25.1	25.1	84	21.0	2	5	248	0.00	30.167 
22:20	25.1	25.1	25.1	88	22.1	2	5	270	0.00	30.167 
22:25	25.0	25.0	25.0	84	20.9	2	4	270	0.00	30.167 
22:30	24.8	24.8	24.8	84	20.7	2	5	270	0.00	30.163 
22:35	24.8	24.8	24.8	84	20.7	2	4	248	0.00	30.163 
22:40	24.8	24.8	24.8	84	20.7	2	6	248	0.00	30.163 
22:45	24.8	24.8	24.8	84	20.7	2	4	248	0.00	30.161 
22:50	24.7	24.7	24.7	84	20.6	2	4	248	0.00	30.161 
22:55	24.7	24.7	24.7	84	20.6	1	3	270	0.00	30.161 
23:00	24.7	24.7	24.7	84	20.6	2	4	270	0.00	30.161 
23:05	24.5	24.5	24.5	83	20.1	2	4	270	0.00	30.161 
23:10	24.5	24.5	24.5	83	20.1	3	5	270	0.00	30.161 
23:15	24.4	24.4	24.4	83	20.0	3	6	270	0.00	30.161 
23:20	24.2	24.2	24.2	83	19.8	3	7	270	0.00	30.161 
23:25	24.1	24.1	24.1	84	20.0	3	6	270	0.00	30.161 
23:30	23.9	23.9	23.9	84	19.8	2	5	248	0.00	30.161 
23:35	23.9	23.9	23.9	84	19.8	2	3	248	0.00	30.161 
23:40	23.9	23.9	23.9	84	19.8	1	4	270	0.00	30.161 
23:45	23.8	23.8	23.8	84	19.7	2	4	270	0.00	30.160 
23:50	23.6	23.6	23.6	85	19.8	3	6	248	0.00	30.160 
23:55	23.6	23.6	23.6	84	19.5	2	4	270	0.00	30.160 

CoCoRaHS
IN-AL-39
A2 Web Hosting
Creative Commons License
GoDaddy
search engine by freefind advanced

loaded 2018-11-15 05:03:43 • last modified 2010-11-18 10:43:29
Privacy PolicyDisclaimer
• wx.awcolley.com is powered by PmWiki v.2002016 •
• all content (unless otherwise noted) © 2018 A W Colley